Brandenburg, KY

7:37 PM EST on March 06, 2015 (GMT -0500)
Godman Army Air Field | Change Station
CLOSE
Current Station
Airport
Location: Fort Knox,
Elevation: 755 ft
Nearby Weather Stations
Active Advisory: Flood Warning Active Notice: Record Report, Public Information Statement

Elev 755 ft 37.91 °N, 85.97 °W | Updated 39 minutes ago

Clear
Clear
25 °F
Feels Like 17 °F
N
7
Wind Variable Wind from South

Today
High -- | Low -- °F
--% Chance of Precip.
Yesterday
High -- | Low -- °F
Precip. -- in
7:09 AM 6:42 PM
Full, 99% visible
Pressure 30.45 in
Visibility 10.0 miles
Clouds Clear
Windchill 17 °F
Dew Point 13 °F
Humidity 60%
Rainfall 0.10 in
Snow Depth Not available.
UV 0 out of 12
Pollen 3.00 out of 12
Air Quality Not available.
Flu Activity Not available.
METAR KFTK 062358Z AUTO 18006KT 10SM CLR M04/M11 A3040 RMK AO2 SLP312 60007 T10401108 11016 21040 56012

More Conditions Fewer Conditions

Pressure 30.45 in
Visibility 10.0 miles
Clouds Clear
Windchill 17 °F
Dew Point 13 °F
Humidity 60%
Rainfall 0.10 in
Snow Depth Not available.
UV 0 out of 12
Pollen 3.00 out of 12
Air Quality Not available.
Flu Activity Not available.
METAR KFTK 062358Z AUTO 18006KT 10SM CLR M04/M11 A3040 RMK AO2 SLP312 60007 T10401108 11016 21040 56012

More Conditions Fewer Conditions

10-Day Weather Forecast

Almanac

Astronomy

Mar. 06, 2015 Rise Set
Actual Time
Civil Twilight
Nautical Twilight
Astronomical Twilight
Moon
Length of Visible Light
Length of Day
Tomorrow will be .
, % of the Moon is Illuminated

Today's Extremes

State Highs State Lows

Community

WunderPhotos

Upload Photos

1,803,469 photos uploaded!

WunderBlogs® & News

Nearby

Air Quality

  Air Quality AQ Index Pollutant
Not available.

Snow Depth

Station Depth Elevation

Earthquake Activity

City Distance Mag. Time & Date
Minimum magnitude displayed is 2.5.

Coastal Water Temperatures

Place Temperature

Nearby Weather Stations

Flood Warning
Statement as of 11:06 AM EST on March 06, 2015

The Flood Warning continues for
the Ohio River at McAlpine lower.
* From Monday morning to Wednesday morning.
* At 10:00 am Friday the stage was 46.7 feet.
* Flood stage is 55.0 feet.
* Minor flooding is forecast.
* Forecast... rise above flood stage by Monday morning and continue to
rise to near 56.1 feet by Tuesday morning. The river will fall
below flood stage by early Wednesday morning.
* Impact... at 55.0 feet... Parks and riverfront areas in Clarksville
and New Albany flood. Some yards along US 31w (dixie highway) from
Pleasure Ridge Park to West Point KY flood.
* Flood history... this crest compares to a previous crest of 55.9
feet on may 22 1995.


Lat... Lon 3831 8580 3806 8605 3822 8636 3809 8636
      3793 8604 3824 8568